createdAt,value
2019-05-02T06:50:54.595Z,14.60
2019-05-02T07:04:22.906Z,14.90
2019-05-02T07:07:31.395Z,14.90
2019-05-02T07:11:01.419Z,15.00
2019-05-02T08:02:30.954Z,15.90
2019-05-02T08:07:21.113Z,15.80
2019-05-02T08:39:41.696Z,17.50
2019-05-02T13:23:42.595Z,25.10
2019-05-02T14:57:37.235Z,23.70
2019-05-02T15:08:53.812Z,23.40
2019-05-02T15:38:52.591Z,23.30
2019-05-02T16:22:49.591Z,23.00
2019-05-02T16:26:08.725Z,22.90
2019-05-02T20:04:09.356Z,19.10
2019-05-02T20:42:13.960Z,18.30
2019-05-02T20:45:28.010Z,18.20
2019-05-02T20:48:23.769Z,18.10
2019-05-02T20:51:19.619Z,18.10
2019-05-02T20:54:09.087Z,18.00
2019-05-02T20:57:06.909Z,17.90
2019-05-02T21:00:28.723Z,17.80
2019-05-02T21:03:45.215Z,17.80
2019-05-02T21:07:06.515Z,17.70
2019-05-02T21:10:41.625Z,17.70
2019-05-02T21:14:12.685Z,17.60
2019-05-02T21:17:58.114Z,17.50
2019-05-02T21:20:12.960Z,17.50
2019-05-02T21:24:02.086Z,17.40
2019-05-02T21:27:11.563Z,17.30
2019-05-02T21:30:21.718Z,17.20
2019-05-02T21:33:42.540Z,17.20
2019-05-02T21:36:40.188Z,17.20
2019-05-02T21:39:27.921Z,17.10
2019-05-02T21:42:16.354Z,17.00
2019-05-02T21:45:10.470Z,16.90
2019-05-02T21:48:13.039Z,16.90
2019-05-02T21:51:04.397Z,16.90
2019-05-02T21:54:13.238Z,16.80
2019-05-02T21:57:16.150Z,16.80
2019-05-02T22:00:06.463Z,16.70
2019-05-02T22:03:05.400Z,16.70
2019-05-02T22:05:58.095Z,16.70
2019-05-02T22:08:43.089Z,16.60
2019-05-02T22:11:32.133Z,16.60
2019-05-02T22:14:18.843Z,16.50
2019-05-02T22:17:08.268Z,16.50
2019-05-02T22:20:02.432Z,16.40
2019-05-02T22:22:55.174Z,16.40
2019-05-02T22:25:39.591Z,16.40
2019-05-02T22:28:30.186Z,16.30
2019-05-02T22:31:26.702Z,16.30
2019-05-02T22:34:18.230Z,16.20
2019-05-02T22:37:12.479Z,16.10
2019-05-02T22:40:04.047Z,16.10
2019-05-02T22:42:52.361Z,16.10
2019-05-02T22:45:43.877Z,16.00
2019-05-02T22:48:31.869Z,16.00
2019-05-02T22:51:19.535Z,15.90
2019-05-02T22:54:23.332Z,15.90
2019-05-02T22:56:58.699Z,15.90
2019-05-02T22:59:46.319Z,15.80
2019-05-02T23:02:36.664Z,15.80
2019-05-02T23:05:32.116Z,15.70
2019-05-02T23:08:13.078Z,15.70
2019-05-02T23:11:06.327Z,15.60
2019-05-02T23:13:53.256Z,15.60
2019-05-02T23:16:42.677Z,15.50
2019-05-02T23:19:31.578Z,15.50
2019-05-02T23:22:18.680Z,15.50
2019-05-02T23:25:32.200Z,15.40
2019-05-02T23:28:24.232Z,15.40
2019-05-02T23:31:14.113Z,15.30
2019-05-02T23:34:07.300Z,15.20
2019-05-02T23:37:35.140Z,15.30
2019-05-02T23:40:19.998Z,15.20
2019-05-02T23:43:06.719Z,15.10
2019-05-02T23:45:55.935Z,15.00
2019-05-02T23:48:42.749Z,15.00
2019-05-02T23:51:32.048Z,14.90
2019-05-02T23:54:19.111Z,14.80
2019-05-02T23:57:07.298Z,14.80
2019-05-02T23:59:54.870Z,14.80
